VOE75PK LFBO-LFST
Flight info
| Callsign | VOE75PK |
|---|---|
| Flight time | 1h 5m |
| Altitude | 34000 |
| Route | MEN DCT NINUN DCT LATAM DCT ETREK DCT LTP DCT SOPLO DCT OMASI DCT KINNI DCT GILIR/N0424F280 DCT PENDU DCT LUL |
| Aircraft | A320/M-SDE3FGHIRWY/LB1 |
Departure
| Time | 2026-05-05 15:56 |
|---|---|
| Airport | Toulouse-Blagnac Airport (LFBO) |
Arrival
| Time | 2026-05-05 17:01 |
|---|---|
| Airport | Strasbourg Airport (LFST) |
| Time | Latitude | Longitude | Altitude | Speed | Heading |
|---|---|---|---|---|---|
| 2026-05-05 15:29 | 43.62799 | 1.37666 | 488 ft | 0 kts | 53° |
| 2026-05-05 15:32 | 43.62801 | 1.37668 | 489 ft | 0 kts | 53° |
| 2026-05-05 15:48 | 43.62786 | 1.37642 | 481 ft | 4 kts | 53° |
| 2026-05-05 15:48 | 43.62774 | 1.37619 | 489 ft | 4 kts | 70° |
| 2026-05-05 15:48 | 43.62776 | 1.37591 | 483 ft | 4 kts | 137° |
| 2026-05-05 15:48 | 43.62795 | 1.37570 | 488 ft | 3 kts | 143° |
| 2026-05-05 15:49 | 43.62797 | 1.37567 | 489 ft | 0 kts | 143° |
| 2026-05-05 15:51 | 43.62777 | 1.37589 | 483 ft | 10 kts | 143° |
| 2026-05-05 15:51 | 43.62718 | 1.37627 | 492 ft | 8 kts | 198° |
| 2026-05-05 15:51 | 43.62677 | 1.37567 | 490 ft | 10 kts | 234° |
| 2026-05-05 15:51 | 43.62629 | 1.37466 | 494 ft | 14 kts | 236° |
| 2026-05-05 15:52 | 43.62562 | 1.37344 | 491 ft | 16 kts | 218° |
| 2026-05-05 15:52 | 43.62463 | 1.37394 | 490 ft | 16 kts | 142° |
| 2026-05-05 15:52 | 43.62381 | 1.37481 | 491 ft | 14 kts | 142° |
| 2026-05-05 15:52 | 43.62309 | 1.37556 | 491 ft | 12 kts | 142° |
| 2026-05-05 15:53 | 43.62244 | 1.37625 | 491 ft | 13 kts | 142° |
| 2026-05-05 15:53 | 43.62155 | 1.37717 | 486 ft | 19 kts | 143° |
| 2026-05-05 15:53 | 43.62038 | 1.37840 | 487 ft | 23 kts | 144° |
| 2026-05-05 15:53 | 43.61918 | 1.37963 | 491 ft | 21 kts | 143° |
| 2026-05-05 15:54 | 43.61799 | 1.38086 | 494 ft | 21 kts | 143° |
| 2026-05-05 15:54 | 43.61699 | 1.38175 | 494 ft | 14 kts | 165° |
| 2026-05-05 15:54 | 43.61623 | 1.38106 | 492 ft | 15 kts | 235° |
| 2026-05-05 15:54 | 43.61594 | 1.37994 | 486 ft | 11 kts | 304° |
| 2026-05-05 15:55 | 43.61619 | 1.37966 | 489 ft | 0 kts | 322° |
| 2026-05-05 15:55 | 43.61646 | 1.37937 | 494 ft | 23 kts | 323° |
| 2026-05-05 15:55 | 43.61982 | 1.37589 | 490 ft | 94 kts | 323° |
| 2026-05-05 15:56 | 43.62658 | 1.36881 | 492 ft | 148 kts | 323° |
| 2026-05-05 15:56 | 43.63557 | 1.35952 | 814 ft | 165 kts | 319° |
| 2026-05-05 15:56 | 43.64471 | 1.34992 | 1498 ft | 164 kts | 319° |
| 2026-05-05 15:56 | 43.65361 | 1.34006 | 2232 ft | 164 kts | 318° |
| 2026-05-05 15:57 | 43.66280 | 1.32975 | 2675 ft | 179 kts | 319° |
| 2026-05-05 15:57 | 43.67292 | 1.31845 | 3038 ft | 196 kts | 319° |
| 2026-05-05 15:57 | 43.68409 | 1.30615 | 3308 ft | 221 kts | 323° |
| 2026-05-05 15:57 | 43.69935 | 1.29911 | 3679 ft | 250 kts | 359° |
| 2026-05-05 15:58 | 43.71630 | 1.30716 | 4269 ft | 272 kts | 35° |
| 2026-05-05 15:58 | 43.72847 | 1.32773 | 5068 ft | 282 kts | 59° |
| 2026-05-05 15:58 | 43.73703 | 1.35214 | 6030 ft | 282 kts | 65° |
| 2026-05-05 15:58 | 43.74501 | 1.37717 | 6856 ft | 287 kts | 65° |
| 2026-05-05 15:59 | 43.75357 | 1.40225 | 7649 ft | 291 kts | 63° |
| 2026-05-05 15:59 | 43.76314 | 1.42715 | 8466 ft | 295 kts | 60° |
| 2026-05-05 15:59 | 43.77361 | 1.45184 | 9273 ft | 299 kts | 58° |
| 2026-05-05 15:59 | 43.78474 | 1.47650 | 10041 ft | 304 kts | 57° |
| 2026-05-05 16:00 | 43.79648 | 1.50165 | 10441 ft | 322 kts | 57° |
| 2026-05-05 16:00 | 43.80924 | 1.52855 | 10639 ft | 346 kts | 57° |
| 2026-05-05 16:00 | 43.82075 | 1.55855 | 11123 ft | 357 kts | 68° |
| 2026-05-05 16:00 | 43.82873 | 1.59129 | 11794 ft | 361 kts | 74° |
| 2026-05-05 16:01 | 43.83610 | 1.62478 | 12521 ft | 365 kts | 74° |
| 2026-05-05 16:01 | 43.84348 | 1.65862 | 13236 ft | 368 kts | 75° |
| 2026-05-05 16:01 | 43.85092 | 1.69286 | 13920 ft | 372 kts | 75° |
| 2026-05-05 16:01 | 43.85829 | 1.72691 | 14526 ft | 376 kts | 75° |
| 2026-05-05 16:02 | 43.86582 | 1.76176 | 15143 ft | 379 kts | 75° |
| 2026-05-05 16:02 | 43.87342 | 1.79692 | 15741 ft | 383 kts | 75° |
| 2026-05-05 16:02 | 43.88117 | 1.83295 | 16351 ft | 387 kts | 75° |
| 2026-05-05 16:02 | 43.88877 | 1.86839 | 16940 ft | 391 kts | 75° |
| 2026-05-05 16:03 | 43.89655 | 1.90469 | 17527 ft | 394 kts | 75° |
| 2026-05-05 16:03 | 43.90441 | 1.94127 | 18140 ft | 397 kts | 76° |
| 2026-05-05 16:03 | 43.91236 | 1.97816 | 18681 ft | 400 kts | 75° |
| 2026-05-05 16:03 | 43.92279 | 2.01411 | 19208 ft | 406 kts | 65° |
| 2026-05-05 16:04 | 43.93778 | 2.04760 | 19740 ft | 411 kts | 54° |
| 2026-05-05 16:04 | 43.95616 | 2.07826 | 20276 ft | 415 kts | 51° |
| 2026-05-05 16:04 | 43.97500 | 2.10893 | 20805 ft | 418 kts | 51° |
| 2026-05-05 16:04 | 43.99395 | 2.13981 | 21321 ft | 422 kts | 51° |
| 2026-05-05 16:05 | 44.01308 | 2.17101 | 21835 ft | 425 kts | 51° |
| 2026-05-05 16:05 | 44.03229 | 2.20239 | 22342 ft | 428 kts | 51° |
| 2026-05-05 16:05 | 44.05164 | 2.23405 | 22839 ft | 431 kts | 51° |
| 2026-05-05 16:05 | 44.07111 | 2.26594 | 23296 ft | 434 kts | 51° |
| 2026-05-05 16:06 | 44.09044 | 2.29768 | 23692 ft | 437 kts | 52° |
| 2026-05-05 16:06 | 44.11022 | 2.33021 | 24027 ft | 442 kts | 51° |
| 2026-05-05 16:06 | 44.13014 | 2.36304 | 24366 ft | 446 kts | 52° |
| 2026-05-05 16:06 | 44.15022 | 2.39621 | 24697 ft | 450 kts | 52° |
| 2026-05-05 16:07 | 44.17048 | 2.42973 | 25026 ft | 453 kts | 51° |
| 2026-05-05 16:07 | 44.19081 | 2.46342 | 25366 ft | 457 kts | 51° |
| 2026-05-05 16:07 | 44.21133 | 2.49746 | 25698 ft | 459 kts | 51° |
| 2026-05-05 16:07 | 44.23197 | 2.53168 | 26027 ft | 462 kts | 51° |
| 2026-05-05 16:08 | 44.25281 | 2.56623 | 26335 ft | 466 kts | 51° |
| 2026-05-05 16:08 | 44.27377 | 2.60097 | 26649 ft | 469 kts | 51° |
| 2026-05-05 16:08 | 44.29454 | 2.63546 | 26948 ft | 471 kts | 51° |
| 2026-05-05 16:08 | 44.31572 | 2.67063 | 27247 ft | 475 kts | 51° |
| 2026-05-05 16:09 | 44.33707 | 2.70617 | 27444 ft | 480 kts | 51° |
| 2026-05-05 16:09 | 44.35864 | 2.74217 | 27686 ft | 484 kts | 51° |
| 2026-05-05 16:09 | 44.38030 | 2.77842 | 27946 ft | 487 kts | 51° |
| 2026-05-05 16:09 | 44.40207 | 2.81486 | 28247 ft | 490 kts | 51° |
| 2026-05-05 16:10 | 44.42401 | 2.85161 | 28557 ft | 492 kts | 51° |
| 2026-05-05 16:10 | 44.44600 | 2.88847 | 28810 ft | 494 kts | 51° |
| 2026-05-05 16:10 | 44.46807 | 2.92551 | 29057 ft | 497 kts | 51° |
| 2026-05-05 16:10 | 44.49030 | 2.96283 | 29306 ft | 500 kts | 51° |
| 2026-05-05 16:11 | 44.51232 | 2.99984 | 29540 ft | 502 kts | 51° |
| 2026-05-05 16:11 | 44.57976 | 3.11370 | 30079 ft | 512 kts | 51° |
| 2026-05-05 16:12 | 44.60229 | 3.15250 | 30328 ft | 511 kts | 54° |
| 2026-05-05 16:12 | 44.63868 | 3.23771 | 30904 ft | 507 kts | 63° |
| 2026-05-05 16:13 | 44.69051 | 3.36691 | 31862 ft | 505 kts | 62° |
| 2026-05-05 16:13 | 44.70781 | 3.40993 | 32150 ft | 504 kts | 62° |
| 2026-05-05 16:13 | 44.72500 | 3.45285 | 32431 ft | 504 kts | 62° |
| 2026-05-05 16:14 | 44.75917 | 3.53886 | 33003 ft | 502 kts | 63° |
| 2026-05-05 16:14 | 44.79309 | 3.62465 | 33590 ft | 501 kts | 63° |
| 2026-05-05 16:15 | 44.82704 | 3.71053 | 33895 ft | 500 kts | 62° |
| 2026-05-05 16:15 | 44.86075 | 3.79590 | 33895 ft | 498 kts | 63° |
| 2026-05-05 16:16 | 44.92788 | 3.96668 | 33896 ft | 500 kts | 63° |
| 2026-05-05 16:17 | 44.97787 | 4.09468 | 33880 ft | 494 kts | 63° |
| 2026-05-05 16:18 | 45.02752 | 4.22238 | 33862 ft | 494 kts | 63° |
| 2026-05-05 16:19 | 45.07695 | 4.35042 | 33866 ft | 498 kts | 63° |
| 2026-05-05 16:19 | 45.12683 | 4.47985 | 33880 ft | 499 kts | 63° |
| 2026-05-05 16:20 | 45.19322 | 4.65305 | 33859 ft | 500 kts | 63° |
| 2026-05-05 16:22 | 45.27044 | 4.85614 | 33862 ft | 505 kts | 63° |
| 2026-05-05 16:23 | 45.33679 | 5.03149 | 33882 ft | 502 kts | 64° |
| 2026-05-05 16:23 | 45.38621 | 5.16310 | 33868 ft | 504 kts | 63° |
| 2026-05-05 16:24 | 45.41913 | 5.25130 | 33872 ft | 505 kts | 63° |
| 2026-05-05 16:25 | 45.46849 | 5.38387 | 33892 ft | 505 kts | 63° |
| 2026-05-05 16:25 | 45.51001 | 5.46453 | 33868 ft | 505 kts | 44° |
| 2026-05-05 16:25 | 45.53580 | 5.49842 | 33874 ft | 504 kts | 40° |
| 2026-05-05 16:26 | 45.64009 | 5.63160 | 33889 ft | 504 kts | 41° |
| 2026-05-05 16:27 | 45.69215 | 5.69852 | 33894 ft | 503 kts | 41° |
| 2026-05-05 16:27 | 45.74420 | 5.76557 | 33896 ft | 503 kts | 41° |
| 2026-05-05 16:28 | 45.79628 | 5.83241 | 33899 ft | 502 kts | 41° |
| 2026-05-05 16:28 | 45.84837 | 5.89934 | 33914 ft | 502 kts | 41° |
| 2026-05-05 16:29 | 45.89998 | 5.96600 | 33874 ft | 502 kts | 41° |
| 2026-05-05 16:29 | 45.95199 | 6.03336 | 33871 ft | 504 kts | 41° |
| 2026-05-05 16:30 | 46.00408 | 6.10102 | 33872 ft | 504 kts | 41° |
| 2026-05-05 16:30 | 46.05855 | 6.16431 | 33909 ft | 501 kts | 29° |
| 2026-05-05 16:31 | 46.12154 | 6.20347 | 33934 ft | 492 kts | 10° |
| 2026-05-05 16:31 | 46.18862 | 6.21453 | 33931 ft | 482 kts | 356° |
| 2026-05-05 16:32 | 46.25579 | 6.21622 | 33939 ft | 482 kts | 356° |
| 2026-05-05 16:32 | 46.32276 | 6.21817 | 33936 ft | 481 kts | 356° |
| 2026-05-05 16:33 | 46.38972 | 6.22015 | 33928 ft | 480 kts | 356° |
| 2026-05-05 16:33 | 46.45618 | 6.22198 | 33920 ft | 480 kts | 357° |
| 2026-05-05 16:34 | 46.52313 | 6.22383 | 33910 ft | 480 kts | 357° |
| 2026-05-05 16:34 | 46.58998 | 6.22568 | 33910 ft | 480 kts | 357° |
| 2026-05-05 16:35 | 46.65691 | 6.22754 | 33906 ft | 480 kts | 357° |
| 2026-05-05 16:35 | 46.72377 | 6.22945 | 33902 ft | 480 kts | 357° |
| 2026-05-05 16:36 | 46.79066 | 6.23138 | 33900 ft | 480 kts | 357° |
| 2026-05-05 16:36 | 46.85740 | 6.23330 | 33921 ft | 480 kts | 358° |
| 2026-05-05 16:37 | 46.92369 | 6.23519 | 33916 ft | 479 kts | 358° |
| 2026-05-05 16:37 | 46.99031 | 6.23706 | 33912 ft | 478 kts | 358° |
| 2026-05-05 16:38 | 47.05630 | 6.23173 | 33913 ft | 471 kts | 345° |
| 2026-05-05 16:38 | 47.11731 | 6.20069 | 33910 ft | 460 kts | 329° |
| 2026-05-05 16:39 | 47.17472 | 6.15905 | 33926 ft | 460 kts | 329° |
| 2026-05-05 16:39 | 47.23227 | 6.11734 | 33902 ft | 461 kts | 330° |
| 2026-05-05 16:40 | 47.29026 | 6.07811 | 33881 ft | 465 kts | 339° |
| 2026-05-05 16:40 | 47.32188 | 6.06725 | 33875 ft | 469 kts | 350° |
| 2026-05-05 16:40 | 47.35455 | 6.06493 | 33871 ft | 473 kts | 1° |
| 2026-05-05 16:41 | 47.38719 | 6.07149 | 33870 ft | 476 kts | 12° |
| 2026-05-05 16:41 | 47.41861 | 6.08690 | 33857 ft | 477 kts | 24° |
| 2026-05-05 16:41 | 47.47762 | 6.13178 | 33869 ft | 477 kts | 27° |
| 2026-05-05 16:42 | 47.53650 | 6.17738 | 32672 ft | 483 kts | 27° |
| 2026-05-05 16:42 | 47.56646 | 6.20060 | 31427 ft | 490 kts | 28° |
| 2026-05-05 16:42 | 47.59659 | 6.22397 | 30516 ft | 488 kts | 28° |
| 2026-05-05 16:43 | 47.62648 | 6.24721 | 29806 ft | 482 kts | 28° |
| 2026-05-05 16:43 | 47.65600 | 6.26998 | 29095 ft | 475 kts | 26° |
| 2026-05-05 16:43 | 47.68651 | 6.28768 | 28450 ft | 468 kts | 17° |
| 2026-05-05 16:43 | 47.71771 | 6.29772 | 27864 ft | 461 kts | 7° |
| 2026-05-05 16:44 | 47.74953 | 6.30152 | 27274 ft | 455 kts | 4° |
| 2026-05-05 16:44 | 47.78093 | 6.30447 | 26687 ft | 450 kts | 4° |
| 2026-05-05 16:44 | 47.81198 | 6.30745 | 26114 ft | 445 kts | 4° |
| 2026-05-05 16:44 | 47.84274 | 6.31046 | 25541 ft | 441 kts | 4° |
| 2026-05-05 16:45 | 47.87330 | 6.31347 | 25002 ft | 438 kts | 4° |
| 2026-05-05 16:45 | 47.90358 | 6.31650 | 24452 ft | 435 kts | 4° |
| 2026-05-05 16:45 | 47.93363 | 6.31947 | 23928 ft | 432 kts | 4° |
| 2026-05-05 16:45 | 47.96354 | 6.32241 | 23419 ft | 429 kts | 4° |
| 2026-05-05 16:46 | 47.99332 | 6.32530 | 22845 ft | 426 kts | 4° |
| 2026-05-05 16:46 | 48.02278 | 6.32814 | 22345 ft | 423 kts | 4° |
| 2026-05-05 16:46 | 48.05214 | 6.33101 | 21831 ft | 421 kts | 4° |
| 2026-05-05 16:46 | 48.08124 | 6.33387 | 21339 ft | 417 kts | 4° |
| 2026-05-05 16:47 | 48.10998 | 6.33674 | 20856 ft | 413 kts | 3° |
| 2026-05-05 16:47 | 48.13861 | 6.33960 | 20351 ft | 410 kts | 3° |
| 2026-05-05 16:47 | 48.16698 | 6.34242 | 19847 ft | 407 kts | 3° |
| 2026-05-05 16:47 | 48.19514 | 6.34522 | 19336 ft | 405 kts | 3° |
| 2026-05-05 16:48 | 48.22289 | 6.34798 | 18823 ft | 403 kts | 3° |
| 2026-05-05 16:48 | 48.25078 | 6.35086 | 18301 ft | 401 kts | 5° |
| 2026-05-05 16:48 | 48.27775 | 6.36109 | 17736 ft | 401 kts | 24° |
| 2026-05-05 16:48 | 48.30080 | 6.38401 | 17215 ft | 397 kts | 44° |
| 2026-05-05 16:49 | 48.31744 | 6.41666 | 16689 ft | 392 kts | 64° |
| 2026-05-05 16:49 | 48.32596 | 6.45510 | 16165 ft | 387 kts | 84° |
| 2026-05-05 16:49 | 48.32752 | 6.49456 | 15661 ft | 386 kts | 90° |
| 2026-05-05 16:49 | 48.32828 | 6.53487 | 15155 ft | 387 kts | 91° |
| 2026-05-05 16:50 | 48.32897 | 6.57528 | 14660 ft | 385 kts | 91° |
| 2026-05-05 16:50 | 48.32966 | 6.61496 | 14511 ft | 373 kts | 90° |
| 2026-05-05 16:50 | 48.33034 | 6.65322 | 14387 ft | 360 kts | 91° |
| 2026-05-05 16:50 | 48.33102 | 6.69026 | 14264 ft | 349 kts | 91° |
| 2026-05-05 16:51 | 48.33171 | 6.72605 | 14151 ft | 338 kts | 91° |
| 2026-05-05 16:51 | 48.33237 | 6.76089 | 13971 ft | 330 kts | 91° |
| 2026-05-05 16:51 | 48.33296 | 6.79495 | 13557 ft | 321 kts | 91° |
| 2026-05-05 16:51 | 48.33352 | 6.82751 | 13419 ft | 302 kts | 91° |
| 2026-05-05 16:52 | 48.33405 | 6.85842 | 13113 ft | 291 kts | 91° |
| 2026-05-05 16:52 | 48.33454 | 6.88863 | 12625 ft | 288 kts | 91° |
| 2026-05-05 16:52 | 48.33502 | 6.91854 | 12147 ft | 285 kts | 91° |
| 2026-05-05 16:52 | 48.33549 | 6.94822 | 11669 ft | 283 kts | 91° |
| 2026-05-05 16:53 | 48.33597 | 6.97764 | 11155 ft | 281 kts | 91° |
| 2026-05-05 16:53 | 48.33643 | 7.00699 | 10653 ft | 280 kts | 91° |
| 2026-05-05 16:53 | 48.33687 | 7.03617 | 10176 ft | 278 kts | 91° |
| 2026-05-05 16:53 | 48.33728 | 7.06476 | 9674 ft | 277 kts | 91° |
| 2026-05-05 16:54 | 48.33771 | 7.09359 | 9140 ft | 274 kts | 91° |
| 2026-05-05 16:54 | 48.33811 | 7.12224 | 8680 ft | 273 kts | 91° |
| 2026-05-05 16:54 | 48.33850 | 7.15053 | 8255 ft | 268 kts | 91° |
| 2026-05-05 16:54 | 48.33888 | 7.17849 | 7862 ft | 266 kts | 91° |
| 2026-05-05 16:55 | 48.33926 | 7.20617 | 7476 ft | 264 kts | 91° |
| 2026-05-05 16:55 | 48.33964 | 7.23376 | 7101 ft | 266 kts | 91° |
| 2026-05-05 16:55 | 48.34003 | 7.26112 | 6993 ft | 256 kts | 91° |
| 2026-05-05 16:55 | 48.34284 | 7.28698 | 6912 ft | 247 kts | 71° |
| 2026-05-05 16:56 | 48.35098 | 7.30931 | 6661 ft | 243 kts | 50° |
| 2026-05-05 16:56 | 48.36216 | 7.32846 | 6312 ft | 245 kts | 47° |
| 2026-05-05 16:56 | 48.37358 | 7.34765 | 5943 ft | 248 kts | 47° |
| 2026-05-05 16:56 | 48.38496 | 7.36688 | 5529 ft | 249 kts | 48° |
| 2026-05-05 16:57 | 48.39637 | 7.38625 | 5153 ft | 247 kts | 48° |
| 2026-05-05 16:57 | 48.40784 | 7.40572 | 4763 ft | 250 kts | 48° |
| 2026-05-05 16:57 | 48.41941 | 7.42537 | 4372 ft | 251 kts | 48° |
| 2026-05-05 16:57 | 48.43078 | 7.44471 | 3975 ft | 240 kts | 49° |
| 2026-05-05 16:58 | 48.44164 | 7.46318 | 3604 ft | 231 kts | 48° |
| 2026-05-05 16:58 | 48.45208 | 7.48095 | 3250 ft | 222 kts | 48° |
| 2026-05-05 16:58 | 48.46214 | 7.49808 | 2923 ft | 215 kts | 49° |
| 2026-05-05 16:58 | 48.47182 | 7.51458 | 2612 ft | 205 kts | 49° |
| 2026-05-05 16:59 | 48.48110 | 7.53040 | 2273 ft | 197 kts | 50° |
| 2026-05-05 16:59 | 48.48988 | 7.54538 | 1995 ft | 182 kts | 50° |
| 2026-05-05 16:59 | 48.49801 | 7.55925 | 1702 ft | 171 kts | 49° |
| 2026-05-05 16:59 | 48.50568 | 7.57236 | 1433 ft | 163 kts | 51° |
| 2026-05-05 17:00 | 48.51294 | 7.58478 | 1187 ft | 153 kts | 49° |
| 2026-05-05 17:00 | 48.51983 | 7.59655 | 948 ft | 148 kts | 49° |
| 2026-05-05 17:00 | 48.52656 | 7.60807 | 711 ft | 146 kts | 48° |
| 2026-05-05 17:00 | 48.53329 | 7.61966 | 514 ft | 144 kts | 49° |
| 2026-05-05 17:01 | 48.53861 | 7.62873 | 509 ft | 83 kts | 48° |
| 2026-05-05 17:01 | 48.54178 | 7.63418 | 511 ft | 59 kts | 48° |
| 2026-05-05 17:01 | 48.54407 | 7.63811 | 510 ft | 41 kts | 49° |
| 2026-05-05 17:01 | 48.54534 | 7.63995 | 510 ft | 19 kts | 12° |
| 2026-05-05 17:02 | 48.54634 | 7.63901 | 512 ft | 18 kts | 310° |
| 2026-05-05 17:02 | 48.54598 | 7.63741 | 513 ft | 18 kts | 228° |
| 2026-05-05 17:02 | 48.54510 | 7.63589 | 512 ft | 20 kts | 229° |
| 2026-05-05 17:02 | 48.54414 | 7.63426 | 512 ft | 21 kts | 228° |
| 2026-05-05 17:03 | 48.54314 | 7.63254 | 512 ft | 22 kts | 232° |
| 2026-05-05 17:03 | 48.54354 | 7.63108 | 512 ft | 13 kts | 319° |
| 2026-05-05 17:03 | 48.54388 | 7.63006 | 512 ft | 11 kts | 258° |
| 2026-05-05 17:03 | 48.54356 | 7.62919 | 512 ft | 7 kts | 274° |
| 2026-05-05 17:04 | 48.54394 | 7.62892 | 512 ft | 4 kts | 348° |
| 2026-05-05 17:04 | 48.54409 | 7.62888 | 512 ft | 2 kts | 349° |
| 2026-05-05 17:04 | 48.54418 | 7.62885 | 512 ft | 1 kts | 349° |